sensor_id;sensor_type;location;lat;lon;timestamp;pressure;altitude;pressure_sealevel;temperature;humidity
63006;BME280;53704;52.532;6.426;2023-04-26T00:01:47;101856.16;;;2.62;100.00
63006;BME280;53704;52.532;6.426;2023-04-26T00:04:12;101855.66;;;2.56;100.00
63006;BME280;53704;52.532;6.426;2023-04-26T00:06:38;101856.66;;;2.53;100.00
63006;BME280;53704;52.532;6.426;2023-04-26T00:09:03;101854.19;;;2.34;100.00
63006;BME280;53704;52.532;6.426;2023-04-26T00:11:29;101852.31;;;2.52;100.00
63006;BME280;53704;52.532;6.426;2023-04-26T00:13:57;101860.19;;;2.22;100.00
63006;BME280;53704;52.532;6.426;2023-04-26T00:16:22;101857.97;;;2.30;100.00
63006;BME280;53704;52.532;6.426;2023-04-26T00:18:48;101859.06;;;2.26;100.00
63006;BME280;53704;52.532;6.426;2023-04-26T00:21:14;101865.19;;;2.60;100.00
63006;BME280;53704;52.532;6.426;2023-04-26T00:23:39;101857.13;;;2.61;100.00
63006;BME280;53704;52.532;6.426;2023-04-26T00:26:04;101859.44;;;2.67;100.00
63006;BME280;53704;52.532;6.426;2023-04-26T00:28:30;101850.25;;;2.41;100.00
63006;BME280;53704;52.532;6.426;2023-04-26T00:30:55;101848.00;;;2.17;100.00
63006;BME280;53704;52.532;6.426;2023-04-26T00:33:24;101849.41;;;2.09;100.00
63006;BME280;53704;52.532;6.426;2023-04-26T00:35:51;101848.19;;;2.14;100.00
63006;BME280;53704;52.532;6.426;2023-04-26T00:38:16;101855.81;;;2.05;100.00
63006;BME280;53704;52.532;6.426;2023-04-26T00:40:41;101862.75;;;2.07;100.00
63006;BME280;53704;52.532;6.426;2023-04-26T00:43:07;101850.06;;;2.12;100.00
63006;BME280;53704;52.532;6.426;2023-04-26T00:45:33;101858.09;;;1.95;100.00
63006;BME280;53704;52.532;6.426;2023-04-26T00:48:00;101866.09;;;2.11;100.00
63006;BME280;53704;52.532;6.426;2023-04-26T00:50:28;101864.44;;;2.08;100.00
63006;BME280;53704;52.532;6.426;2023-04-26T00:52:54;101856.41;;;2.10;100.00
63006;BME280;53704;52.532;6.426;2023-04-26T00:55:22;101851.69;;;2.15;100.00
63006;BME280;53704;52.532;6.426;2023-04-26T00:57:48;101847.25;;;2.15;100.00
63006;BME280;53704;52.532;6.426;2023-04-26T01:00:13;101854.16;;;2.02;100.00
63006;BME280;53704;52.532;6.426;2023-04-26T01:02:40;101848.09;;;2.00;100.00
63006;BME280;53704;52.532;6.426;2023-04-26T01:05:06;101845.66;;;1.95;100.00
63006;BME280;53704;52.532;6.426;2023-04-26T01:07:32;101841.19;;;1.80;100.00
63006;BME280;53704;52.532;6.426;2023-04-26T01:09:58;101835.47;;;2.04;100.00
63006;BME280;53704;52.532;6.426;2023-04-26T01:12:27;101840.00;;;1.86;100.00
63006;BME280;53704;52.532;6.426;2023-04-26T01:14:53;101844.38;;;1.87;100.00
63006;BME280;53704;52.532;6.426;2023-04-26T01:17:19;101851.81;;;1.80;100.00
63006;BME280;53704;52.532;6.426;2023-04-26T01:19:48;101851.31;;;1.89;100.00
63006;BME280;53704;52.532;6.426;2023-04-26T01:22:13;101841.84;;;2.01;100.00
63006;BME280;53704;52.532;6.426;2023-04-26T01:24:44;101853.38;;;1.84;100.00
63006;BME280;53704;52.532;6.426;2023-04-26T01:27:11;101851.22;;;1.91;100.00
63006;BME280;53704;52.532;6.426;2023-04-26T01:29:37;101844.56;;;1.84;100.00
63006;BME280;53704;52.532;6.426;2023-04-26T01:32:03;101852.50;;;1.84;100.00
63006;BME280;53704;52.532;6.426;2023-04-26T01:34:28;101850.94;;;1.79;100.00
63006;BME280;53704;52.532;6.426;2023-04-26T01:36:54;101852.84;;;1.77;100.00
63006;BME280;53704;52.532;6.426;2023-04-26T01:39:19;101851.72;;;1.81;100.00
63006;BME280;53704;52.532;6.426;2023-04-26T01:41:45;101852.44;;;1.85;100.00
63006;BME280;53704;52.532;6.426;2023-04-26T01:44:10;101854.44;;;2.13;100.00
63006;BME280;53704;52.532;6.426;2023-04-26T01:46:36;101846.69;;;1.93;100.00
63006;BME280;53704;52.532;6.426;2023-04-26T01:49:01;101840.13;;;2.00;100.00
63006;BME280;53704;52.532;6.426;2023-04-26T01:51:27;101841.34;;;1.77;100.00
63006;BME280;53704;52.532;6.426;2023-04-26T01:53:52;101842.06;;;1.80;100.00
63006;BME280;53704;52.532;6.426;2023-04-26T01:56:18;101845.41;;;1.84;100.00
63006;BME280;53704;52.532;6.426;2023-04-26T01:58:44;101839.56;;;1.77;100.00
63006;BME280;53704;52.532;6.426;2023-04-26T02:01:09;101839.88;;;1.71;100.00
63006;BME280;53704;52.532;6.426;2023-04-26T02:03:35;101837.16;;;1.73;100.00
63006;BME280;53704;52.532;6.426;2023-04-26T02:06:01;101847.81;;;1.89;100.00
63006;BME280;53704;52.532;6.426;2023-04-26T02:08:27;101845.19;;;1.71;100.00
63006;BME280;53704;52.532;6.426;2023-04-26T02:10:52;101854.56;;;1.61;100.00
63006;BME280;53704;52.532;6.426;2023-04-26T02:13:19;101849.66;;;1.53;100.00
63006;BME280;53704;52.532;6.426;2023-04-26T02:15:48;101850.91;;;1.63;100.00
63006;BME280;53704;52.532;6.426;2023-04-26T02:18:14;101844.00;;;1.77;100.00
63006;BME280;53704;52.532;6.426;2023-04-26T02:20:40;101849.69;;;1.87;100.00
63006;BME280;53704;52.532;6.426;2023-04-26T02:23:07;101840.13;;;1.67;100.00
63006;BME280;53704;52.532;6.426;2023-04-26T02:25:33;101842.94;;;1.63;100.00
63006;BME280;53704;52.532;6.426;2023-04-26T02:27:58;101838.34;;;1.83;100.00
63006;BME280;53704;52.532;6.426;2023-04-26T02:30:24;101839.81;;;1.73;100.00
63006;BME280;53704;52.532;6.426;2023-04-26T02:32:52;101839.00;;;1.88;100.00
63006;BME280;53704;52.532;6.426;2023-04-26T02:35:18;101837.06;;;1.74;100.00
63006;BME280;53704;52.532;6.426;2023-04-26T02:37:43;101840.38;;;1.62;100.00
63006;BME280;53704;52.532;6.426;2023-04-26T02:40:15;101839.06;;;1.87;100.00
63006;BME280;53704;52.532;6.426;2023-04-26T02:42:40;101842.97;;;1.79;100.00
63006;BME280;53704;52.532;6.426;2023-04-26T02:45:06;101835.13;;;1.60;100.00
63006;BME280;53704;52.532;6.426;2023-04-26T02:47:32;101838.91;;;1.39;100.00
63006;BME280;53704;52.532;6.426;2023-04-26T02:50:01;101839.75;;;1.57;100.00
63006;BME280;53704;52.532;6.426;2023-04-26T02:52:26;101843.06;;;1.44;100.00
63006;BME280;53704;52.532;6.426;2023-04-26T02:54:52;101847.41;;;1.11;100.00
63006;BME280;53704;52.532;6.426;2023-04-26T02:57:17;101846.88;;;1.21;100.00
63006;BME280;53704;52.532;6.426;2023-04-26T02:59:43;101842.19;;;1.44;100.00
63006;BME280;53704;52.532;6.426;2023-04-26T03:02:08;101851.34;;;1.21;100.00
63006;BME280;53704;52.532;6.426;2023-04-26T03:04:34;101846.94;;;1.37;100.00
63006;BME280;53704;52.532;6.426;2023-04-26T03:07:02;101848.59;;;1.05;100.00
63006;BME280;53704;52.532;6.426;2023-04-26T03:09:27;101845.88;;;1.24;100.00
63006;BME280;53704;52.532;6.426;2023-04-26T03:11:53;101848.22;;;1.13;100.00
63006;BME280;53704;52.532;6.426;2023-04-26T03:14:18;101840.03;;;1.35;100.00
63006;BME280;53704;52.532;6.426;2023-04-26T03:16:43;101845.41;;;1.16;100.00
63006;BME280;53704;52.532;6.426;2023-04-26T03:19:10;101849.59;;;1.20;100.00
63006;BME280;53704;52.532;6.426;2023-04-26T03:21:35;101856.88;;;1.34;100.00
63006;BME280;53704;52.532;6.426;2023-04-26T03:24:01;101842.03;;;1.30;100.00
63006;BME280;53704;52.532;6.426;2023-04-26T03:26:27;101844.31;;;1.20;100.00
63006;BME280;53704;52.532;6.426;2023-04-26T03:28:52;101838.53;;;0.94;100.00
63006;BME280;53704;52.532;6.426;2023-04-26T03:31:17;101832.91;;;0.83;100.00
63006;BME280;53704;52.532;6.426;2023-04-26T03:33:45;101831.50;;;0.93;100.00
63006;BME280;53704;52.532;6.426;2023-04-26T03:36:10;101839.22;;;0.98;100.00
63006;BME280;53704;52.532;6.426;2023-04-26T03:38:36;101827.84;;;1.13;100.00
63006;BME280;53704;52.532;6.426;2023-04-26T03:41:02;101836.66;;;1.14;100.00
63006;BME280;53704;52.532;6.426;2023-04-26T03:43:27;101835.81;;;1.13;100.00
63006;BME280;53704;52.532;6.426;2023-04-26T03:45:53;101839.47;;;1.11;100.00
63006;BME280;53704;52.532;6.426;2023-04-26T03:48:19;101833.00;;;1.16;100.00
63006;BME280;53704;52.532;6.426;2023-04-26T03:50:44;101836.88;;;1.09;100.00
63006;BME280;53704;52.532;6.426;2023-04-26T03:53:11;101824.34;;;1.30;100.00
63006;BME280;53704;52.532;6.426;2023-04-26T03:55:36;101822.59;;;1.29;100.00
63006;BME280;53704;52.532;6.426;2023-04-26T03:58:02;101839.53;;;1.26;100.00
63006;BME280;53704;52.532;6.426;2023-04-26T04:00:37;101830.66;;;1.27;100.00
63006;BME280;53704;52.532;6.426;2023-04-26T04:03:04;101834.94;;;1.30;100.00
63006;BME280;53704;52.532;6.426;2023-04-26T04:05:29;101827.13;;;1.44;100.00
63006;BME280;53704;52.532;6.426;2023-04-26T04:07:55;101830.72;;;1.43;100.00
63006;BME280;53704;52.532;6.426;2023-04-26T04:10:21;101834.78;;;1.33;100.00
63006;BME280;53704;52.532;6.426;2023-04-26T04:12:48;101829.88;;;1.43;100.00
63006;BME280;53704;52.532;6.426;2023-04-26T04:15:14;101821.91;;;1.43;100.00
63006;BME280;53704;52.532;6.426;2023-04-26T04:17:39;101811.31;;;1.25;100.00
63006;BME280;53704;52.532;6.426;2023-04-26T04:20:06;101824.19;;;1.16;100.00
63006;BME280;53704;52.532;6.426;2023-04-26T04:22:32;101825.72;;;1.20;100.00
63006;BME280;53704;52.532;6.426;2023-04-26T04:24:57;101836.00;;;1.43;100.00
63006;BME280;53704;52.532;6.426;2023-04-26T04:27:25;101844.38;;;1.36;100.00
63006;BME280;53704;52.532;6.426;2023-04-26T04:29:50;101838.06;;;1.38;100.00
63006;BME280;53704;52.532;6.426;2023-04-26T04:32:15;101836.19;;;1.40;100.00
63006;BME280;53704;52.532;6.426;2023-04-26T04:34:41;101832.50;;;1.43;100.00
63006;BME280;53704;52.532;6.426;2023-04-26T04:37:10;101841.00;;;1.50;100.00
63006;BME280;53704;52.532;6.426;2023-04-26T04:39:36;101834.91;;;1.65;100.00
63006;BME280;53704;52.532;6.426;2023-04-26T04:42:02;101835.22;;;1.59;100.00
63006;BME280;53704;52.532;6.426;2023-04-26T04:44:27;101833.34;;;1.61;100.00
63006;BME280;53704;52.532;6.426;2023-04-26T04:46:53;101838.72;;;1.59;100.00
63006;BME280;53704;52.532;6.426;2023-04-26T04:49:18;101841.63;;;1.55;100.00
63006;BME280;53704;52.532;6.426;2023-04-26T04:51:44;101841.38;;;1.59;100.00
63006;BME280;53704;52.532;6.426;2023-04-26T04:54:14;101842.19;;;1.61;100.00
63006;BME280;53704;52.532;6.426;2023-04-26T04:56:40;101845.88;;;1.75;100.00
63006;BME280;53704;52.532;6.426;2023-04-26T04:59:06;101842.47;;;1.73;100.00
63006;BME280;53704;52.532;6.426;2023-04-26T05:01:33;101850.66;;;1.68;100.00
63006;BME280;53704;52.532;6.426;2023-04-26T05:03:59;101849.50;;;1.90;100.00
63006;BME280;53704;52.532;6.426;2023-04-26T05:06:26;101850.97;;;1.95;100.00
63006;BME280;53704;52.532;6.426;2023-04-26T05:08:52;101844.72;;;1.80;100.00
63006;BME280;53704;52.532;6.426;2023-04-26T05:11:17;101841.72;;;1.87;100.00
63006;BME280;53704;52.532;6.426;2023-04-26T05:13:42;101851.31;;;1.89;100.00
63006;BME280;53704;52.532;6.426;2023-04-26T05:16:08;101856.88;;;1.85;100.00
63006;BME280;53704;52.532;6.426;2023-04-26T05:18:33;101848.13;;;1.83;100.00
63006;BME280;53704;52.532;6.426;2023-04-26T05:20:59;101862.53;;;1.94;100.00
63006;BME280;53704;52.532;6.426;2023-04-26T05:23:24;101864.94;;;1.99;100.00
63006;BME280;53704;52.532;6.426;2023-04-26T05:25:50;101856.91;;;2.01;100.00
63006;BME280;53704;52.532;6.426;2023-04-26T05:28:15;101858.66;;;2.17;100.00
63006;BME280;53704;52.532;6.426;2023-04-26T05:30:41;101869.28;;;2.17;100.00
63006;BME280;53704;52.532;6.426;2023-04-26T05:33:06;101858.91;;;2.29;100.00
63006;BME280;53704;52.532;6.426;2023-04-26T05:35:32;101858.13;;;2.27;100.00
63006;BME280;53704;52.532;6.426;2023-04-26T05:37:57;101866.97;;;2.43;100.00
63006;BME280;53704;52.532;6.426;2023-04-26T05:40:23;101857.81;;;2.49;100.00
63006;BME280;53704;52.532;6.426;2023-04-26T05:42:51;101862.69;;;2.57;100.00
63006;BME280;53704;52.532;6.426;2023-04-26T05:45:17;101865.00;;;2.63;100.00
63006;BME280;53704;52.532;6.426;2023-04-26T05:47:42;101869.97;;;2.69;100.00
63006;BME280;53704;52.532;6.426;2023-04-26T05:50:08;101874.91;;;2.75;100.00
63006;BME280;53704;52.532;6.426;2023-04-26T05:52:34;101872.53;;;2.86;100.00
63006;BME280;53704;52.532;6.426;2023-04-26T05:54:59;101873.88;;;2.94;100.00
63006;BME280;53704;52.532;6.426;2023-04-26T05:57:28;101881.91;;;3.08;100.00
63006;BME280;53704;52.532;6.426;2023-04-26T05:59:53;101879.50;;;3.03;100.00
63006;BME280;53704;52.532;6.426;2023-04-26T06:02:19;101878.31;;;3.09;100.00
63006;BME280;53704;52.532;6.426;2023-04-26T06:04:44;101872.81;;;3.12;100.00
63006;BME280;53704;52.532;6.426;2023-04-26T06:07:10;101880.25;;;3.21;100.00
63006;BME280;53704;52.532;6.426;2023-04-26T06:09:38;101877.25;;;3.28;100.00
63006;BME280;53704;52.532;6.426;2023-04-26T06:12:04;101880.69;;;3.44;100.00
63006;BME280;53704;52.532;6.426;2023-04-26T06:14:29;101884.72;;;3.51;100.00
63006;BME280;53704;52.532;6.426;2023-04-26T06:16:55;101880.72;;;3.58;100.00
63006;BME280;53704;52.532;6.426;2023-04-26T06:19:21;101884.19;;;3.75;100.00
63006;BME280;53704;52.532;6.426;2023-04-26T06:21:46;101884.75;;;3.94;100.00
63006;BME280;53704;52.532;6.426;2023-04-26T06:24:13;101880.97;;;4.13;100.00
63006;BME280;53704;52.532;6.426;2023-04-26T06:26:38;101882.53;;;4.30;100.00
63006;BME280;53704;52.532;6.426;2023-04-26T06:29:04;101875.22;;;4.33;100.00
63006;BME280;53704;52.532;6.426;2023-04-26T06:31:30;101890.72;;;4.27;100.00
63006;BME280;53704;52.532;6.426;2023-04-26T06:33:55;101882.06;;;4.23;100.00
63006;BME280;53704;52.532;6.426;2023-04-26T06:36:21;101876.94;;;4.20;100.00
63006;BME280;53704;52.532;6.426;2023-04-26T06:38:46;101879.78;;;4.31;100.00
63006;BME280;53704;52.532;6.426;2023-04-26T06:41:12;101886.84;;;4.18;100.00
63006;BME280;53704;52.532;6.426;2023-04-26T06:43:38;101888.47;;;4.21;100.00
63006;BME280;53704;52.532;6.426;2023-04-26T06:46:03;101887.00;;;4.44;100.00
63006;BME280;53704;52.532;6.426;2023-04-26T06:48:29;101890.22;;;4.63;100.00
63006;BME280;53704;52.532;6.426;2023-04-26T06:50:54;101894.94;;;4.72;100.00
63006;BME280;53704;52.532;6.426;2023-04-26T06:53:20;101889.59;;;4.72;100.00
63006;BME280;53704;52.532;6.426;2023-04-26T06:55:45;101885.78;;;4.77;100.00
63006;BME280;53704;52.532;6.426;2023-04-26T06:58:11;101891.84;;;5.06;100.00
63006;BME280;53704;52.532;6.426;2023-04-26T07:00:36;101896.59;;;5.15;100.00
63006;BME280;53704;52.532;6.426;2023-04-26T07:03:02;101895.13;;;5.24;100.00
63006;BME280;53704;52.532;6.426;2023-04-26T07:05:27;101900.56;;;5.22;100.00
63006;BME280;53704;52.532;6.426;2023-04-26T07:07:52;101900.38;;;5.25;100.00
63006;BME280;53704;52.532;6.426;2023-04-26T07:10:18;101898.88;;;5.34;100.00
63006;BME280;53704;52.532;6.426;2023-04-26T07:12:45;101907.06;;;5.46;100.00
63006;BME280;53704;52.532;6.426;2023-04-26T07:15:11;101902.34;;;5.49;100.00
63006;BME280;53704;52.532;6.426;2023-04-26T07:17:36;101906.75;;;5.63;100.00
63006;BME280;53704;52.532;6.426;2023-04-26T07:20:02;101906.28;;;5.56;100.00
63006;BME280;53704;52.532;6.426;2023-04-26T07:22:28;101908.19;;;5.41;100.00
63006;BME280;53704;52.532;6.426;2023-04-26T07:24:53;101905.84;;;5.37;100.00
63006;BME280;53704;52.532;6.426;2023-04-26T07:27:19;101905.31;;;5.32;100.00
63006;BME280;53704;52.532;6.426;2023-04-26T07:29:45;101908.09;;;5.43;100.00
63006;BME280;53704;52.532;6.426;2023-04-26T07:32:10;101911.00;;;5.53;100.00
63006;BME280;53704;52.532;6.426;2023-04-26T07:34:36;101908.84;;;5.58;100.00
63006;BME280;53704;52.532;6.426;2023-04-26T07:37:01;101905.34;;;5.57;100.00
63006;BME280;53704;52.532;6.426;2023-04-26T07:39:27;101908.56;;;5.75;100.00
63006;BME280;53704;52.532;6.426;2023-04-26T07:41:52;101901.22;;;6.05;100.00
63006;BME280;53704;52.532;6.426;2023-04-26T07:44:18;101895.88;;;6.05;100.00
63006;BME280;53704;52.532;6.426;2023-04-26T07:46:43;101903.38;;;6.00;100.00
63006;BME280;53704;52.532;6.426;2023-04-26T07:49:09;101910.75;;;6.09;100.00
63006;BME280;53704;52.532;6.426;2023-04-26T07:51:37;101913.94;;;6.14;100.00
63006;BME280;53704;52.532;6.426;2023-04-26T07:54:02;101916.19;;;6.33;100.00
63006;BME280;53704;52.532;6.426;2023-04-26T07:56:28;101913.09;;;6.26;100.00
63006;BME280;53704;52.532;6.426;2023-04-26T07:58:53;101914.00;;;6.38;100.00
63006;BME280;53704;52.532;6.426;2023-04-26T08:01:18;101918.50;;;6.50;100.00
63006;BME280;53704;52.532;6.426;2023-04-26T08:03:44;101912.66;;;6.69;100.00
63006;BME280;53704;52.532;6.426;2023-04-26T08:06:10;101921.72;;;6.80;100.00
63006;BME280;53704;52.532;6.426;2023-04-26T08:08:36;101917.63;;;6.87;100.00
63006;BME280;53704;52.532;6.426;2023-04-26T08:11:07;101915.88;;;6.62;100.00
63006;BME280;53704;52.532;6.426;2023-04-26T08:13:32;101918.59;;;6.49;100.00
63006;BME280;53704;52.532;6.426;2023-04-26T08:15:58;101919.91;;;6.30;100.00
63006;BME280;53704;52.532;6.426;2023-04-26T08:18:23;101930.66;;;6.55;100.00
63006;BME280;53704;52.532;6.426;2023-04-26T08:20:49;101932.94;;;6.48;100.00
63006;BME280;53704;52.532;6.426;2023-04-26T08:23:14;101933.34;;;6.55;100.00
63006;BME280;53704;52.532;6.426;2023-04-26T08:25:40;101924.22;;;6.70;100.00
63006;BME280;53704;52.532;6.426;2023-04-26T08:28:05;101915.00;;;6.74;100.00
63006;BME280;53704;52.532;6.426;2023-04-26T08:30:33;101920.47;;;6.97;100.00
63006;BME280;53704;52.532;6.426;2023-04-26T08:32:58;101933.69;;;7.11;100.00
63006;BME280;53704;52.532;6.426;2023-04-26T08:35:24;101933.06;;;6.83;100.00
63006;BME280;53704;52.532;6.426;2023-04-26T08:37:50;101926.88;;;7.07;100.00
63006;BME280;53704;52.532;6.426;2023-04-26T08:40:22;101931.19;;;7.21;100.00
63006;BME280;53704;52.532;6.426;2023-04-26T08:42:48;101932.88;;;7.46;100.00
63006;BME280;53704;52.532;6.426;2023-04-26T08:45:13;101931.13;;;7.34;100.00
63006;BME280;53704;52.532;6.426;2023-04-26T08:47:46;101928.38;;;7.47;100.00
63006;BME280;53704;52.532;6.426;2023-04-26T08:50:14;101939.53;;;7.76;100.00
63006;BME280;53704;52.532;6.426;2023-04-26T08:52:41;101939.59;;;7.52;100.00
63006;BME280;53704;52.532;6.426;2023-04-26T08:55:08;101942.00;;;7.90;100.00
63006;BME280;53704;52.532;6.426;2023-04-26T08:57:34;101931.63;;;7.86;100.00
63006;BME280;53704;52.532;6.426;2023-04-26T09:00:03;101933.13;;;8.01;100.00
63006;BME280;53704;52.532;6.426;2023-04-26T09:02:37;101935.09;;;7.99;100.00
63006;BME280;53704;52.532;6.426;2023-04-26T09:05:06;101926.31;;;8.31;100.00
63006;BME280;53704;52.532;6.426;2023-04-26T09:07:39;101927.03;;;8.33;100.00
63006;BME280;53704;52.532;6.426;2023-04-26T09:10:05;101927.44;;;8.51;100.00
63006;BME280;53704;52.532;6.426;2023-04-26T09:12:32;101921.34;;;8.60;100.00
63006;BME280;53704;52.532;6.426;2023-04-26T09:14:57;101918.75;;;8.36;100.00
63006;BME280;53704;52.532;6.426;2023-04-26T09:19:49;101918.28;;;8.31;100.00
63006;BME280;53704;52.532;6.426;2023-04-26T09:22:26;101917.78;;;8.37;100.00
63006;BME280;53704;52.532;6.426;2023-04-26T09:24:52;101915.22;;;8.13;100.00
63006;BME280;53704;52.532;6.426;2023-04-26T09:27:18;101916.44;;;8.65;100.00
63006;BME280;53704;52.532;6.426;2023-04-26T09:29:58;101920.16;;;8.97;100.00
63006;BME280;53704;52.532;6.426;2023-04-26T09:32:24;101916.88;;;8.82;100.00
63006;BME280;53704;52.532;6.426;2023-04-26T09:34:50;101920.53;;;8.92;100.00
63006;BME280;53704;52.532;6.426;2023-04-26T09:37:16;101925.91;;;9.24;100.00
63006;BME280;53704;52.532;6.426;2023-04-26T09:39:41;101915.69;;;8.41;100.00
63006;BME280;53704;52.532;6.426;2023-04-26T09:42:08;101922.25;;;8.82;100.00
63006;BME280;53704;52.532;6.426;2023-04-26T09:44:34;101916.28;;;8.78;100.00
63006;BME280;53704;52.532;6.426;2023-04-26T09:47:07;101924.75;;;8.51;100.00
63006;BME280;53704;52.532;6.426;2023-04-26T09:49:47;101914.97;;;8.61;100.00
63006;BME280;53704;52.532;6.426;2023-04-26T09:52:15;101913.53;;;9.01;100.00
63006;BME280;53704;52.532;6.426;2023-04-26T09:54:48;101916.06;;;9.14;100.00
63006;BME280;53704;52.532;6.426;2023-04-26T09:57:17;101911.22;;;9.82;100.00
63006;BME280;53704;52.532;6.426;2023-04-26T09:59:49;101907.72;;;9.49;100.00
63006;BME280;53704;52.532;6.426;2023-04-26T10:02:25;101895.16;;;10.02;100.00
63006;BME280;53704;52.532;6.426;2023-04-26T10:04:53;101908.84;;;9.47;100.00
63006;BME280;53704;52.532;6.426;2023-04-26T10:07:21;101903.25;;;9.38;100.00
63006;BME280;53704;52.532;6.426;2023-04-26T10:09:48;101907.09;;;9.57;100.00
63006;BME280;53704;52.532;6.426;2023-04-26T10:12:15;101903.94;;;9.73;100.00
63006;BME280;53704;52.532;6.426;2023-04-26T10:14:42;101899.97;;;9.98;100.00
63006;BME280;53704;52.532;6.426;2023-04-26T10:17:09;101907.66;;;9.82;100.00
63006;BME280;53704;52.532;6.426;2023-04-26T10:19:36;101906.22;;;9.56;96.65
63006;BME280;53704;52.532;6.426;2023-04-26T10:24:47;101904.03;;;9.92;95.82
63006;BME280;53704;52.532;6.426;2023-04-26T10:27:13;101907.41;;;9.64;93.33
63006;BME280;53704;52.532;6.426;2023-04-26T10:32:20;101909.09;;;9.44;100.00
63006;BME280;53704;52.532;6.426;2023-04-26T10:35:11;101908.69;;;9.27;95.53
63006;BME280;53704;52.532;6.426;2023-04-26T10:40:25;101916.06;;;9.14;89.89
63006;BME280;53704;52.532;6.426;2023-04-26T10:45:46;101903.44;;;9.26;98.39
63006;BME280;53704;52.532;6.426;2023-04-26T10:48:16;101905.81;;;9.19;97.65
63006;BME280;53704;52.532;6.426;2023-04-26T10:59:09;101906.19;;;9.68;96.12
63006;BME280;53704;52.532;6.426;2023-04-26T11:01:35;101907.59;;;10.24;90.48
63006;BME280;53704;52.532;6.426;2023-04-26T11:04:06;101913.25;;;9.90;93.60
63006;BME280;53704;52.532;6.426;2023-04-26T11:06:54;101903.84;;;10.36;100.00
63006;BME280;53704;52.532;6.426;2023-04-26T11:09:39;101899.47;;;10.45;97.84
63006;BME280;53704;52.532;6.426;2023-04-26T11:12:09;101897.94;;;10.42;100.00
63006;BME280;53704;52.532;6.426;2023-04-26T11:14:35;101899.94;;;10.50;100.00
63006;BME280;53704;52.532;6.426;2023-04-26T11:17:08;101895.69;;;10.57;97.73
63006;BME280;53704;52.532;6.426;2023-04-26T11:19:34;101897.97;;;10.62;100.00
63006;BME280;53704;52.532;6.426;2023-04-26T11:22:00;101893.53;;;10.51;95.96
63006;BME280;53704;52.532;6.426;2023-04-26T11:24:30;101893.50;;;10.92;92.74
63006;BME280;53704;52.532;6.426;2023-04-26T11:26:56;101896.75;;;10.85;89.13
63006;BME280;53704;52.532;6.426;2023-04-26T11:29:23;101897.44;;;11.75;86.40
63006;BME280;53704;52.532;6.426;2023-04-26T11:31:56;101893.56;;;11.88;82.26
63006;BME280;53704;52.532;6.426;2023-04-26T11:34:32;101892.09;;;12.13;82.56
63006;BME280;53704;52.532;6.426;2023-04-26T11:37:01;101891.19;;;11.65;79.25
63006;BME280;53704;52.532;6.426;2023-04-26T11:39:26;101893.44;;;11.70;75.54
63006;BME280;53704;52.532;6.426;2023-04-26T11:42:08;101896.72;;;11.64;80.43
63006;BME280;53704;52.532;6.426;2023-04-26T11:44:34;101892.09;;;11.36;80.65
63006;BME280;53704;52.532;6.426;2023-04-26T11:47:00;101893.34;;;11.52;79.95
63006;BME280;53704;52.532;6.426;2023-04-26T11:49:28;101892.75;;;10.29;80.08
63006;BME280;53704;52.532;6.426;2023-04-26T11:51:54;101902.88;;;9.64;78.27
63006;BME280;53704;52.532;6.426;2023-04-26T11:54:31;101897.63;;;9.84;83.29
63006;BME280;53704;52.532;6.426;2023-04-26T11:56:57;101891.28;;;9.94;76.24
63006;BME280;53704;52.532;6.426;2023-04-26T11:59:27;101902.03;;;9.43;77.62
63006;BME280;53704;52.532;6.426;2023-04-26T12:01:56;101896.22;;;9.89;74.88
63006;BME280;53704;52.532;6.426;2023-04-26T12:04:29;101893.75;;;9.76;78.56
63006;BME280;53704;52.532;6.426;2023-04-26T12:06:55;101887.63;;;9.95;74.03
63006;BME280;53704;52.532;6.426;2023-04-26T12:09:30;101887.28;;;10.10;76.25
63006;BME280;53704;52.532;6.426;2023-04-26T12:12:00;101893.63;;;11.10;77.92
63006;BME280;53704;52.532;6.426;2023-04-26T12:14:30;101885.25;;;10.74;79.79
63006;BME280;53704;52.532;6.426;2023-04-26T12:16:59;101897.94;;;9.69;75.70
63006;BME280;53704;52.532;6.426;2023-04-26T12:19:36;101897.13;;;10.52;80.90
63006;BME280;53704;52.532;6.426;2023-04-26T12:22:03;101897.41;;;9.96;72.84
63006;BME280;53704;52.532;6.426;2023-04-26T12:24:29;101897.13;;;10.30;78.98
63006;BME280;53704;52.532;6.426;2023-04-26T12:27:01;101898.75;;;10.83;76.63
63006;BME280;53704;52.532;6.426;2023-04-26T12:29:28;101888.38;;;10.89;73.27
63006;BME280;53704;52.532;6.426;2023-04-26T12:31:55;101888.19;;;10.20;67.18
63006;BME280;53704;52.532;6.426;2023-04-26T12:34:21;101889.31;;;10.48;68.62
63006;BME280;53704;52.532;6.426;2023-04-26T12:36:46;101878.13;;;10.53;66.73
63006;BME280;53704;52.532;6.426;2023-04-26T12:39:12;101876.03;;;10.96;62.04
63006;BME280;53704;52.532;6.426;2023-04-26T12:41:41;101883.00;;;11.08;62.57
63006;BME280;53704;52.532;6.426;2023-04-26T12:44:07;101879.59;;;10.86;61.13
63006;BME280;53704;52.532;6.426;2023-04-26T12:46:34;101871.81;;;11.32;64.00
63006;BME280;53704;52.532;6.426;2023-04-26T12:48:59;101884.84;;;11.17;68.84
63006;BME280;53704;52.532;6.426;2023-04-26T12:51:25;101885.31;;;11.89;70.03
63006;BME280;53704;52.532;6.426;2023-04-26T12:53:51;101878.47;;;11.28;65.28
63006;BME280;53704;52.532;6.426;2023-04-26T12:56:16;101893.97;;;10.46;69.21
63006;BME280;53704;52.532;6.426;2023-04-26T12:58:42;101885.03;;;10.46;71.52
63006;BME280;53704;52.532;6.426;2023-04-26T13:01:08;101889.66;;;10.03;74.32
63006;BME280;53704;52.532;6.426;2023-04-26T13:03:33;101891.66;;;9.80;72.64
63006;BME280;53704;52.532;6.426;2023-04-26T13:05:59;101888.31;;;10.19;74.41
63006;BME280;53704;52.532;6.426;2023-04-26T13:08:24;101895.66;;;9.86;78.08
63006;BME280;53704;52.532;6.426;2023-04-26T13:10:50;101889.59;;;10.24;74.79